sensor_id;sensor_type;location;lat;lon;timestamp;P1;durP1;ratioP1;P2;durP2;ratioP2
20557;SDS011;10437;48.156;11.530;2023-05-07T00:01:00;9.93;;;5.88;;
20557;SDS011;10437;48.156;11.530;2023-05-07T00:03:27;8.85;;;5.75;;
20557;SDS011;10437;48.156;11.530;2023-05-07T00:05:54;9.40;;;5.63;;
20557;SDS011;10437;48.156;11.530;2023-05-07T00:08:21;11.70;;;5.70;;
20557;SDS011;10437;48.156;11.530;2023-05-07T00:10:48;9.57;;;5.60;;
20557;SDS011;10437;48.156;11.530;2023-05-07T00:13:15;10.00;;;5.65;;
20557;SDS011;10437;48.156;11.530;2023-05-07T00:15:43;11.35;;;5.55;;
20557;SDS011;10437;48.156;11.530;2023-05-07T00:18:11;8.63;;;5.43;;
20557;SDS011;10437;48.156;11.530;2023-05-07T00:20:38;13.48;;;6.82;;
20557;SDS011;10437;48.156;11.530;2023-05-07T00:23:05;8.57;;;5.95;;
20557;SDS011;10437;48.156;11.530;2023-05-07T00:25:32;10.88;;;6.00;;
20557;SDS011;10437;48.156;11.530;2023-05-07T00:27:59;12.02;;;6.35;;
20557;SDS011;10437;48.156;11.530;2023-05-07T00:30:28;11.00;;;6.50;;
20557;SDS011;10437;48.156;11.530;2023-05-07T00:32:56;12.50;;;6.28;;
20557;SDS011;10437;48.156;11.530;2023-05-07T00:35:24;12.68;;;6.85;;
20557;SDS011;10437;48.156;11.530;2023-05-07T00:37:51;10.65;;;5.72;;
20557;SDS011;10437;48.156;11.530;2023-05-07T00:40:18;9.75;;;6.15;;
20557;SDS011;10437;48.156;11.530;2023-05-07T00:42:45;12.57;;;5.90;;
20557;SDS011;10437;48.156;11.530;2023-05-07T00:45:14;12.57;;;6.15;;
20557;SDS011;10437;48.156;11.530;2023-05-07T00:47:41;11.82;;;6.57;;
20557;SDS011;10437;48.156;11.530;2023-05-07T00:50:09;12.40;;;6.53;;
20557;SDS011;10437;48.156;11.530;2023-05-07T00:52:38;13.20;;;6.25;;
20557;SDS011;10437;48.156;11.530;2023-05-07T00:55:06;9.88;;;6.38;;
20557;SDS011;10437;48.156;11.530;2023-05-07T00:57:35;12.00;;;6.38;;
20557;SDS011;10437;48.156;11.530;2023-05-07T01:00:03;9.30;;;6.18;;
20557;SDS011;10437;48.156;11.530;2023-05-07T01:02:31;12.30;;;6.47;;
20557;SDS011;10437;48.156;11.530;2023-05-07T01:04:58;11.77;;;6.93;;
20557;SDS011;10437;48.156;11.530;2023-05-07T01:07:26;12.07;;;6.72;;
20557;SDS011;10437;48.156;11.530;2023-05-07T01:09:55;10.50;;;6.13;;
20557;SDS011;10437;48.156;11.530;2023-05-07T01:12:22;10.95;;;6.35;;
20557;SDS011;10437;48.156;11.530;2023-05-07T01:14:50;9.88;;;6.20;;
20557;SDS011;10437;48.156;11.530;2023-05-07T01:17:17;10.07;;;5.50;;
20557;SDS011;10437;48.156;11.530;2023-05-07T01:19:44;12.75;;;6.60;;
20557;SDS011;10437;48.156;11.530;2023-05-07T01:22:12;12.30;;;6.80;;
20557;SDS011;10437;48.156;11.530;2023-05-07T01:24:42;12.63;;;6.78;;
20557;SDS011;10437;48.156;11.530;2023-05-07T01:27:09;10.02;;;6.15;;
20557;SDS011;10437;48.156;11.530;2023-05-07T01:29:36;11.45;;;6.40;;
20557;SDS011;10437;48.156;11.530;2023-05-07T01:32:03;10.00;;;6.60;;
20557;SDS011;10437;48.156;11.530;2023-05-07T01:34:32;11.02;;;6.78;;
20557;SDS011;10437;48.156;11.530;2023-05-07T01:36:59;11.13;;;6.80;;
20557;SDS011;10437;48.156;11.530;2023-05-07T01:39:28;9.43;;;6.18;;
20557;SDS011;10437;48.156;11.530;2023-05-07T01:41:57;12.63;;;6.93;;
20557;SDS011;10437;48.156;11.530;2023-05-07T01:44:28;9.98;;;6.47;;
20557;SDS011;10437;48.156;11.530;2023-05-07T01:46:55;10.98;;;6.60;;
20557;SDS011;10437;48.156;11.530;2023-05-07T01:49:23;10.68;;;6.43;;
20557;SDS011;10437;48.156;11.530;2023-05-07T01:51:50;13.05;;;7.20;;
20557;SDS011;10437;48.156;11.530;2023-05-07T01:54:18;14.65;;;7.00;;
20557;SDS011;10437;48.156;11.530;2023-05-07T01:56:45;14.82;;;6.68;;
20557;SDS011;10437;48.156;11.530;2023-05-07T01:59:14;11.45;;;6.72;;
20557;SDS011;10437;48.156;11.530;2023-05-07T02:01:41;12.57;;;6.68;;
20557;SDS011;10437;48.156;11.530;2023-05-07T02:04:08;9.95;;;6.20;;
20557;SDS011;10437;48.156;11.530;2023-05-07T02:06:36;11.82;;;6.07;;
20557;SDS011;10437;48.156;11.530;2023-05-07T02:09:03;11.13;;;6.20;;
20557;SDS011;10437;48.156;11.530;2023-05-07T02:11:30;11.02;;;6.05;;
20557;SDS011;10437;48.156;11.530;2023-05-07T02:13:57;13.38;;;6.90;;
20557;SDS011;10437;48.156;11.530;2023-05-07T02:16:25;13.27;;;6.68;;
20557;SDS011;10437;48.156;11.530;2023-05-07T02:18:52;9.45;;;6.30;;
20557;SDS011;10437;48.156;11.530;2023-05-07T02:21:19;12.57;;;6.47;;
20557;SDS011;10437;48.156;11.530;2023-05-07T02:23:47;8.75;;;6.13;;
20557;SDS011;10437;48.156;11.530;2023-05-07T02:26:14;10.00;;;5.97;;
20557;SDS011;10437;48.156;11.530;2023-05-07T02:28:41;12.23;;;6.45;;
20557;SDS011;10437;48.156;11.530;2023-05-07T02:31:08;9.90;;;5.82;;
20557;SDS011;10437;48.156;11.530;2023-05-07T02:33:37;10.18;;;5.93;;
20557;SDS011;10437;48.156;11.530;2023-05-07T02:36:07;12.55;;;6.45;;
20557;SDS011;10437;48.156;11.530;2023-05-07T02:38:34;10.13;;;5.88;;
20557;SDS011;10437;48.156;11.530;2023-05-07T02:41:01;12.68;;;6.32;;
20557;SDS011;10437;48.156;11.530;2023-05-07T02:43:28;9.80;;;6.22;;
20557;SDS011;10437;48.156;11.530;2023-05-07T02:46:05;12.30;;;6.10;;
20557;SDS011;10437;48.156;11.530;2023-05-07T02:48:32;11.55;;;6.15;;
20557;SDS011;10437;48.156;11.530;2023-05-07T02:51:00;7.75;;;5.40;;
20557;SDS011;10437;48.156;11.530;2023-05-07T02:53:28;10.48;;;5.97;;
20557;SDS011;10437;48.156;11.530;2023-05-07T02:55:55;13.60;;;6.05;;
20557;SDS011;10437;48.156;11.530;2023-05-07T02:58:23;8.32;;;5.13;;
20557;SDS011;10437;48.156;11.530;2023-05-07T03:00:50;10.77;;;5.85;;
20557;SDS011;10437;48.156;11.530;2023-05-07T03:03:17;8.60;;;5.13;;
20557;SDS011;10437;48.156;11.530;2023-05-07T03:05:44;12.32;;;6.32;;
20557;SDS011;10437;48.156;11.530;2023-05-07T03:08:13;9.18;;;5.93;;
20557;SDS011;10437;48.156;11.530;2023-05-07T03:10:40;11.18;;;5.50;;
20557;SDS011;10437;48.156;11.530;2023-05-07T03:13:07;10.73;;;6.15;;
20557;SDS011;10437;48.156;11.530;2023-05-07T03:15:34;11.20;;;6.20;;
20557;SDS011;10437;48.156;11.530;2023-05-07T03:18:01;9.98;;;5.85;;
20557;SDS011;10437;48.156;11.530;2023-05-07T03:20:28;9.80;;;5.55;;
20557;SDS011;10437;48.156;11.530;2023-05-07T03:22:56;9.80;;;6.13;;
20557;SDS011;10437;48.156;11.530;2023-05-07T03:25:24;10.30;;;5.53;;
20557;SDS011;10437;48.156;11.530;2023-05-07T03:27:51;10.15;;;5.82;;
20557;SDS011;10437;48.156;11.530;2023-05-07T03:30:18;11.27;;;5.90;;
20557;SDS011;10437;48.156;11.530;2023-05-07T03:32:45;8.23;;;5.78;;
20557;SDS011;10437;48.156;11.530;2023-05-07T03:35:13;8.75;;;5.93;;
20557;SDS011;10437;48.156;11.530;2023-05-07T03:37:40;8.15;;;5.25;;
20557;SDS011;10437;48.156;11.530;2023-05-07T03:40:07;7.43;;;5.00;;
20557;SDS011;10437;48.156;11.530;2023-05-07T03:42:37;8.18;;;5.15;;
20557;SDS011;10437;48.156;11.530;2023-05-07T03:45:04;11.55;;;5.40;;
20557;SDS011;10437;48.156;11.530;2023-05-07T03:47:32;11.15;;;5.38;;
20557;SDS011;10437;48.156;11.530;2023-05-07T03:49:59;7.38;;;5.43;;
20557;SDS011;10437;48.156;11.530;2023-05-07T03:52:27;8.55;;;5.18;;
20557;SDS011;10437;48.156;11.530;2023-05-07T03:54:54;8.88;;;5.15;;
20557;SDS011;10437;48.156;11.530;2023-05-07T03:57:21;7.00;;;4.88;;
20557;SDS011;10437;48.156;11.530;2023-05-07T03:59:49;10.30;;;5.40;;
20557;SDS011;10437;48.156;11.530;2023-05-07T04:02:16;8.35;;;5.07;;
20557;SDS011;10437;48.156;11.530;2023-05-07T04:04:43;8.75;;;5.07;;
20557;SDS011;10437;48.156;11.530;2023-05-07T04:07:10;9.57;;;5.28;;
20557;SDS011;10437;48.156;11.530;2023-05-07T04:09:37;8.48;;;5.43;;
20557;SDS011;10437;48.156;11.530;2023-05-07T04:12:05;9.40;;;5.15;;
20557;SDS011;10437;48.156;11.530;2023-05-07T04:14:32;8.32;;;5.10;;
20557;SDS011;10437;48.156;11.530;2023-05-07T04:17:00;7.95;;;5.22;;
20557;SDS011;10437;48.156;11.530;2023-05-07T04:19:27;8.63;;;5.00;;
20557;SDS011;10437;48.156;11.530;2023-05-07T04:21:54;7.65;;;4.63;;
20557;SDS011;10437;48.156;11.530;2023-05-07T04:24:22;9.38;;;5.63;;
20557;SDS011;10437;48.156;11.530;2023-05-07T04:26:49;8.43;;;4.90;;
20557;SDS011;10437;48.156;11.530;2023-05-07T04:29:17;7.88;;;5.00;;
20557;SDS011;10437;48.156;11.530;2023-05-07T04:31:44;9.77;;;5.10;;
20557;SDS011;10437;48.156;11.530;2023-05-07T04:34:13;8.02;;;5.00;;
20557;SDS011;10437;48.156;11.530;2023-05-07T04:36:40;7.28;;;5.05;;
20557;SDS011;10437;48.156;11.530;2023-05-07T04:39:07;6.78;;;4.88;;
20557;SDS011;10437;48.156;11.530;2023-05-07T04:41:35;9.40;;;5.32;;
20557;SDS011;10437;48.156;11.530;2023-05-07T04:44:02;8.18;;;4.72;;
20557;SDS011;10437;48.156;11.530;2023-05-07T04:46:31;8.23;;;5.00;;
20557;SDS011;10437;48.156;11.530;2023-05-07T04:48:58;9.60;;;5.32;;
20557;SDS011;10437;48.156;11.530;2023-05-07T04:51:27;7.50;;;5.00;;
20557;SDS011;10437;48.156;11.530;2023-05-07T04:53:54;6.55;;;4.78;;
20557;SDS011;10437;48.156;11.530;2023-05-07T04:56:21;9.52;;;4.93;;
20557;SDS011;10437;48.156;11.530;2023-05-07T04:58:48;8.27;;;5.15;;
20557;SDS011;10437;48.156;11.530;2023-05-07T05:01:16;7.78;;;5.15;;
20557;SDS011;10437;48.156;11.530;2023-05-07T05:03:43;6.95;;;4.80;;
20557;SDS011;10437;48.156;11.530;2023-05-07T05:06:10;7.22;;;5.07;;
20557;SDS011;10437;48.156;11.530;2023-05-07T05:08:38;8.85;;;5.25;;
20557;SDS011;10437;48.156;11.530;2023-05-07T05:11:05;13.57;;;5.35;;
20557;SDS011;10437;48.156;11.530;2023-05-07T05:13:32;7.28;;;4.63;;
20557;SDS011;10437;48.156;11.530;2023-05-07T05:15:59;6.38;;;4.78;;
20557;SDS011;10437;48.156;11.530;2023-05-07T05:18:26;6.80;;;4.40;;
20557;SDS011;10437;48.156;11.530;2023-05-07T05:20:54;5.90;;;3.97;;
20557;SDS011;10437;48.156;11.530;2023-05-07T05:23:21;8.85;;;3.97;;
20557;SDS011;10437;48.156;11.530;2023-05-07T05:25:49;5.03;;;4.10;;
20557;SDS011;10437;48.156;11.530;2023-05-07T05:28:16;8.63;;;4.57;;
20557;SDS011;10437;48.156;11.530;2023-05-07T05:30:43;6.70;;;4.70;;
20557;SDS011;10437;48.156;11.530;2023-05-07T05:33:10;4.95;;;3.55;;
20557;SDS011;10437;48.156;11.530;2023-05-07T05:35:37;10.48;;;4.10;;
20557;SDS011;10437;48.156;11.530;2023-05-07T05:38:04;5.32;;;3.58;;
20557;SDS011;10437;48.156;11.530;2023-05-07T05:40:31;8.23;;;4.13;;
20557;SDS011;10437;48.156;11.530;2023-05-07T05:43:00;6.60;;;3.83;;
20557;SDS011;10437;48.156;11.530;2023-05-07T05:45:27;6.18;;;3.70;;
20557;SDS011;10437;48.156;11.530;2023-05-07T05:47:55;7.20;;;4.13;;
20557;SDS011;10437;48.156;11.530;2023-05-07T05:50:22;6.82;;;3.97;;
20557;SDS011;10437;48.156;11.530;2023-05-07T05:52:49;5.93;;;4.13;;
20557;SDS011;10437;48.156;11.530;2023-05-07T05:55:17;7.95;;;4.38;;
20557;SDS011;10437;48.156;11.530;2023-05-07T05:57:44;8.18;;;4.20;;
20557;SDS011;10437;48.156;11.530;2023-05-07T06:00:13;6.65;;;4.28;;
20557;SDS011;10437;48.156;11.530;2023-05-07T06:02:41;9.27;;;4.40;;
20557;SDS011;10437;48.156;11.530;2023-05-07T06:05:08;7.93;;;4.15;;
20557;SDS011;10437;48.156;11.530;2023-05-07T06:07:35;7.40;;;4.03;;
20557;SDS011;10437;48.156;11.530;2023-05-07T06:10:03;5.80;;;3.95;;
20557;SDS011;10437;48.156;11.530;2023-05-07T06:12:30;7.65;;;3.70;;
20557;SDS011;10437;48.156;11.530;2023-05-07T06:14:57;6.65;;;4.20;;
20557;SDS011;10437;48.156;11.530;2023-05-07T06:17:26;6.63;;;4.10;;
20557;SDS011;10437;48.156;11.530;2023-05-07T06:19:52;6.38;;;4.07;;
20557;SDS011;10437;48.156;11.530;2023-05-07T06:22:20;6.82;;;4.40;;
20557;SDS011;10437;48.156;11.530;2023-05-07T06:24:47;6.40;;;4.07;;
20557;SDS011;10437;48.156;11.530;2023-05-07T06:27:14;6.95;;;4.00;;
20557;SDS011;10437;48.156;11.530;2023-05-07T06:29:41;4.70;;;3.53;;
20557;SDS011;10437;48.156;11.530;2023-05-07T06:32:08;7.32;;;3.58;;
20557;SDS011;10437;48.156;11.530;2023-05-07T06:34:37;4.78;;;2.97;;
20557;SDS011;10437;48.156;11.530;2023-05-07T06:37:05;6.07;;;3.33;;
20557;SDS011;10437;48.156;11.530;2023-05-07T06:39:32;4.78;;;3.00;;
20557;SDS011;10437;48.156;11.530;2023-05-07T06:42:00;5.68;;;3.28;;
20557;SDS011;10437;48.156;11.530;2023-05-07T06:44:27;5.72;;;3.53;;
20557;SDS011;10437;48.156;11.530;2023-05-07T06:46:54;6.82;;;3.90;;
20557;SDS011;10437;48.156;11.530;2023-05-07T06:49:21;5.63;;;3.10;;
20557;SDS011;10437;48.156;11.530;2023-05-07T06:51:50;6.93;;;3.10;;
20557;SDS011;10437;48.156;11.530;2023-05-07T06:54:17;5.35;;;3.70;;
20557;SDS011;10437;48.156;11.530;2023-05-07T06:56:45;4.03;;;3.10;;
20557;SDS011;10437;48.156;11.530;2023-05-07T06:59:12;5.07;;;2.92;;
20557;SDS011;10437;48.156;11.530;2023-05-07T07:01:39;3.92;;;2.63;;
20557;SDS011;10437;48.156;11.530;2023-05-07T07:04:06;5.00;;;3.03;;
20557;SDS011;10437;48.156;11.530;2023-05-07T07:06:34;6.13;;;2.92;;
20557;SDS011;10437;48.156;11.530;2023-05-07T07:09:02;5.72;;;2.70;;
20557;SDS011;10437;48.156;11.530;2023-05-07T07:11:29;5.13;;;2.65;;
20557;SDS011;10437;48.156;11.530;2023-05-07T07:13:56;5.18;;;2.45;;
20557;SDS011;10437;48.156;11.530;2023-05-07T07:16:24;3.85;;;2.60;;
20557;SDS011;10437;48.156;11.530;2023-05-07T07:18:51;4.82;;;2.40;;
20557;SDS011;10437;48.156;11.530;2023-05-07T07:21:18;4.05;;;2.45;;
20557;SDS011;10437;48.156;11.530;2023-05-07T07:23:45;5.57;;;2.83;;
20557;SDS011;10437;48.156;11.530;2023-05-07T07:26:13;3.22;;;2.08;;
20557;SDS011;10437;48.156;11.530;2023-05-07T07:28:43;5.40;;;2.50;;
20557;SDS011;10437;48.156;11.530;2023-05-07T07:31:10;3.35;;;2.25;;
20557;SDS011;10437;48.156;11.530;2023-05-07T07:33:38;5.05;;;2.03;;
20557;SDS011;10437;48.156;11.530;2023-05-07T07:36:05;8.38;;;2.38;;
20557;SDS011;10437;48.156;11.530;2023-05-07T07:38:32;3.03;;;2.15;;
20557;SDS011;10437;48.156;11.530;2023-05-07T07:41:00;3.53;;;2.30;;
20557;SDS011;10437;48.156;11.530;2023-05-07T07:43:28;4.38;;;2.60;;
20557;SDS011;10437;48.156;11.530;2023-05-07T07:45:55;5.70;;;2.55;;
20557;SDS011;10437;48.156;11.530;2023-05-07T07:48:22;4.18;;;2.13;;
20557;SDS011;10437;48.156;11.530;2023-05-07T07:50:49;3.60;;;2.33;;
20557;SDS011;10437;48.156;11.530;2023-05-07T07:53:17;3.85;;;2.40;;
20557;SDS011;10437;48.156;11.530;2023-05-07T07:55:44;4.57;;;2.22;;
20557;SDS011;10437;48.156;11.530;2023-05-07T07:58:11;2.33;;;1.63;;
20557;SDS011;10437;48.156;11.530;2023-05-07T08:00:40;4.10;;;2.08;;
20557;SDS011;10437;48.156;11.530;2023-05-07T08:03:08;4.32;;;2.00;;
20557;SDS011;10437;48.156;11.530;2023-05-07T08:05:35;5.15;;;2.20;;
20557;SDS011;10437;48.156;11.530;2023-05-07T08:08:03;5.13;;;2.83;;
20557;SDS011;10437;48.156;11.530;2023-05-07T08:10:30;3.63;;;2.70;;
20557;SDS011;10437;48.156;11.530;2023-05-07T08:12:59;4.53;;;2.58;;
20557;SDS011;10437;48.156;11.530;2023-05-07T08:15:26;5.05;;;2.60;;
20557;SDS011;10437;48.156;11.530;2023-05-07T08:17:55;5.25;;;2.35;;
20557;SDS011;10437;48.156;11.530;2023-05-07T08:20:22;7.72;;;2.55;;
20557;SDS011;10437;48.156;11.530;2023-05-07T08:22:49;3.33;;;2.80;;
20557;SDS011;10437;48.156;11.530;2023-05-07T08:25:17;5.15;;;2.55;;
20557;SDS011;10437;48.156;11.530;2023-05-07T08:27:44;2.70;;;2.38;;
20557;SDS011;10437;48.156;11.530;2023-05-07T08:30:12;4.20;;;2.75;;
20557;SDS011;10437;48.156;11.530;2023-05-07T08:32:40;3.00;;;2.40;;
20557;SDS011;10437;48.156;11.530;2023-05-07T08:35:08;4.28;;;2.38;;
20557;SDS011;10437;48.156;11.530;2023-05-07T08:37:35;3.08;;;2.15;;
20557;SDS011;10437;48.156;11.530;2023-05-07T08:40:03;3.33;;;2.30;;
20557;SDS011;10437;48.156;11.530;2023-05-07T08:42:31;3.47;;;2.20;;
20557;SDS011;10437;48.156;11.530;2023-05-07T08:44:58;3.00;;;2.08;;
20557;SDS011;10437;48.156;11.530;2023-05-07T08:47:29;2.83;;;1.77;;
20557;SDS011;10437;48.156;11.530;2023-05-07T08:50:01;3.33;;;1.98;;
20557;SDS011;10437;48.156;11.530;2023-05-07T08:52:30;4.35;;;1.95;;
20557;SDS011;10437;48.156;11.530;2023-05-07T08:54:57;4.13;;;2.20;;
20557;SDS011;10437;48.156;11.530;2023-05-07T08:57:25;7.28;;;2.22;;
20557;SDS011;10437;48.156;11.530;2023-05-07T08:59:52;2.90;;;1.85;;
20557;SDS011;10437;48.156;11.530;2023-05-07T09:02:19;3.28;;;2.03;;
20557;SDS011;10437;48.156;11.530;2023-05-07T09:04:46;3.78;;;2.55;;
20557;SDS011;10437;48.156;11.530;2023-05-07T09:07:14;4.15;;;2.30;;
20557;SDS011;10437;48.156;11.530;2023-05-07T09:09:42;4.93;;;2.15;;
20557;SDS011;10437;48.156;11.530;2023-05-07T09:12:10;6.00;;;2.22;;
20557;SDS011;10437;48.156;11.530;2023-05-07T09:14:37;3.33;;;2.40;;
20557;SDS011;10437;48.156;11.530;2023-05-07T09:17:04;7.57;;;2.70;;
20557;SDS011;10437;48.156;11.530;2023-05-07T09:19:32;3.53;;;2.13;;
20557;SDS011;10437;48.156;11.530;2023-05-07T09:21:59;2.38;;;1.85;;
20557;SDS011;10437;48.156;11.530;2023-05-07T09:24:27;3.67;;;1.92;;
20557;SDS011;10437;48.156;11.530;2023-05-07T09:27:00;2.42;;;2.10;;
20557;SDS011;10437;48.156;11.530;2023-05-07T09:29:27;5.50;;;2.30;;
20557;SDS011;10437;48.156;11.530;2023-05-07T09:31:55;6.05;;;2.10;;
20557;SDS011;10437;48.156;11.530;2023-05-07T09:34:22;2.72;;;1.90;;
20557;SDS011;10437;48.156;11.530;2023-05-07T09:36:49;4.32;;;2.00;;
20557;SDS011;10437;48.156;11.530;2023-05-07T09:39:16;8.25;;;1.98;;
20557;SDS011;10437;48.156;11.530;2023-05-07T09:41:43;2.63;;;1.70;;
20557;SDS011;10437;48.156;11.530;2023-05-07T09:44:12;2.50;;;1.70;;
20557;SDS011;10437;48.156;11.530;2023-05-07T09:46:42;2.83;;;2.17;;
20557;SDS011;10437;48.156;11.530;2023-05-07T09:49:11;3.88;;;1.80;;
20557;SDS011;10437;48.156;11.530;2023-05-07T09:51:43;4.03;;;2.00;;
20557;SDS011;10437;48.156;11.530;2023-05-07T09:54:14;3.88;;;1.70;;
20557;SDS011;10437;48.156;11.530;2023-05-07T09:56:42;3.08;;;1.67;;
20557;SDS011;10437;48.156;11.530;2023-05-07T09:59:10;3.33;;;1.73;;
20557;SDS011;10437;48.156;11.530;2023-05-07T10:01:38;4.00;;;1.80;;
20557;SDS011;10437;48.156;11.530;2023-05-07T10:04:07;3.03;;;2.00;;
20557;SDS011;10437;48.156;11.530;2023-05-07T10:06:34;5.05;;;2.00;;
20557;SDS011;10437;48.156;11.530;2023-05-07T10:09:02;2.75;;;1.80;;
20557;SDS011;10437;48.156;11.530;2023-05-07T10:11:31;4.15;;;1.80;;
20557;SDS011;10437;48.156;11.530;2023-05-07T10:13:59;2.60;;;1.70;;
20557;SDS011;10437;48.156;11.530;2023-05-07T10:16:27;5.50;;;1.48;;
20557;SDS011;10437;48.156;11.530;2023-05-07T10:18:56;2.53;;;1.30;;
20557;SDS011;10437;48.156;11.530;2023-05-07T10:21:24;4.25;;;1.75;;
20557;SDS011;10437;48.156;11.530;2023-05-07T10:23:55;5.65;;;2.13;;
20557;SDS011;10437;48.156;11.530;2023-05-07T10:26:25;2.30;;;1.45;;
20557;SDS011;10437;48.156;11.530;2023-05-07T10:28:56;4.60;;;1.58;;
20557;SDS011;10437;48.156;11.530;2023-05-07T10:31:37;2.42;;;1.60;;
20557;SDS011;10437;48.156;11.530;2023-05-07T10:34:21;2.45;;;1.48;;
20557;SDS011;10437;48.156;11.530;2023-05-07T10:36:52;6.43;;;1.58;;
20557;SDS011;10437;48.156;11.530;2023-05-07T10:39:21;2.05;;;1.25;;
20557;SDS011;10437;48.156;11.530;2023-05-07T10:41:48;3.55;;;1.77;;
20557;SDS011;10437;48.156;11.530;2023-05-07T10:44:24;2.50;;;1.52;;
20557;SDS011;10437;48.156;11.530;2023-05-07T10:47:08;2.80;;;1.40;;
20557;SDS011;10437;48.156;11.530;2023-05-07T10:49:38;5.50;;;1.35;;
20557;SDS011;10437;48.156;11.530;2023-05-07T10:52:43;2.55;;;1.30;;
20557;SDS011;10437;48.156;11.530;2023-05-07T10:55:19;2.17;;;1.38;;
20557;SDS011;10437;48.156;11.530;2023-05-07T10:57:47;1.42;;;1.13;;
20557;SDS011;10437;48.156;11.530;2023-05-07T11:03:07;2.63;;;1.25;;
20557;SDS011;10437;48.156;11.530;2023-05-07T11:05:36;3.72;;;1.20;;
20557;SDS011;10437;48.156;11.530;2023-05-07T11:08:03;3.80;;;1.33;;
20557;SDS011;10437;48.156;11.530;2023-05-07T11:10:50;3.90;;;1.50;;
20557;SDS011;10437;48.156;11.530;2023-05-07T11:13:18;2.85;;;1.77;;
20557;SDS011;10437;48.156;11.530;2023-05-07T11:16:05;2.00;;;1.50;;
20557;SDS011;10437;48.156;11.530;2023-05-07T11:18:47;3.75;;;1.40;;
20557;SDS011;10437;48.156;11.530;2023-05-07T11:24:01;3.30;;;1.50;;
20557;SDS011;10437;48.156;11.530;2023-05-07T11:26:29;2.28;;;1.70;;
20557;SDS011;10437;48.156;11.530;2023-05-07T11:29:09;5.07;;;1.95;;
20557;SDS011;10437;48.156;11.530;2023-05-07T11:31:37;5.10;;;1.92;;
20557;SDS011;10437;48.156;11.530;2023-05-07T11:34:05;2.97;;;1.88;;
20557;SDS011;10437;48.156;11.530;2023-05-07T11:36:32;2.50;;;1.77;;
20557;SDS011;10437;48.156;11.530;2023-05-07T11:39:01;4.00;;;1.60;;
20557;SDS011;10437;48.156;11.530;2023-05-07T11:41:36;2.88;;;1.73;;
20557;SDS011;10437;48.156;11.530;2023-05-07T11:44:04;2.15;;;1.60;;
20557;SDS011;10437;48.156;11.530;2023-05-07T11:46:31;4.07;;;1.60;;
20557;SDS011;10437;48.156;11.530;2023-05-07T11:49:00;5.13;;;1.60;;
20557;SDS011;10437;48.156;11.530;2023-05-07T11:51:27;4.03;;;1.80;;
20557;SDS011;10437;48.156;11.530;2023-05-07T11:53:54;3.10;;;1.60;;
20557;SDS011;10437;48.156;11.530;2023-05-07T11:56:23;2.15;;;1.40;;
20557;SDS011;10437;48.156;11.530;2023-05-07T11:58:50;3.03;;;1.70;;
20557;SDS011;10437;48.156;11.530;2023-05-07T12:01:17;2.92;;;1.40;;
20557;SDS011;10437;48.156;11.530;2023-05-07T12:03:45;3.13;;;1.48;;
20557;SDS011;10437;48.156;11.530;2023-05-07T12:06:13;2.72;;;1.60;;
20557;SDS011;10437;48.156;11.530;2023-05-07T12:08:41;4.35;;;1.60;;
20557;SDS011;10437;48.156;11.530;2023-05-07T12:11:09;2.45;;;1.60;;
20557;SDS011;10437;48.156;11.530;2023-05-07T12:13:38;4.97;;;1.92;;
20557;SDS011;10437;48.156;11.530;2023-05-07T12:16:05;2.15;;;1.60;;
20557;SDS011;10437;48.156;11.530;2023-05-07T12:18:33;1.63;;;1.42;;
20557;SDS011;10437;48.156;11.530;2023-05-07T12:21:01;1.70;;;1.30;;
20557;SDS011;10437;48.156;11.530;2023-05-07T12:23:28;3.05;;;1.60;;
20557;SDS011;10437;48.156;11.530;2023-05-07T12:25:56;2.78;;;1.70;;
20557;SDS011;10437;48.156;11.530;2023-05-07T12:28:23;2.72;;;1.80;;
20557;SDS011;10437;48.156;11.530;2023-05-07T12:30:51;3.50;;;2.00;;
20557;SDS011;10437;48.156;11.530;2023-05-07T12:33:20;4.78;;;1.85;;
20557;SDS011;10437;48.156;11.530;2023-05-07T12:35:52;2.08;;;1.75;;
20557;SDS011;10437;48.156;11.530;2023-05-07T12:38:20;1.83;;;1.27;;
20557;SDS011;10437;48.156;11.530;2023-05-07T12:40:48;2.70;;;1.63;;
20557;SDS011;10437;48.156;11.530;2023-05-07T12:43:17;2.65;;;1.65;;
20557;SDS011;10437;48.156;11.530;2023-05-07T12:45:44;2.63;;;1.70;;
20557;SDS011;10437;48.156;11.530;2023-05-07T12:48:13;2.70;;;1.73;;
20557;SDS011;10437;48.156;11.530;2023-05-07T12:50:40;2.03;;;1.40;;
20557;SDS011;10437;48.156;11.530;2023-05-07T12:53:07;1.80;;;1.60;;
20557;SDS011;10437;48.156;11.530;2023-05-07T12:55:42;3.80;;;1.70;;
20557;SDS011;10437;48.156;11.530;2023-05-07T12:58:16;4.78;;;1.65;;
20557;SDS011;10437;48.156;11.530;2023-05-07T13:00:44;2.10;;;1.50;;
20557;SDS011;10437;48.156;11.530;2023-05-07T13:03:16;4.00;;;1.42;;
20557;SDS011;10437;48.156;11.530;2023-05-07T13:05:47;4.00;;;1.52;;
20557;SDS011;10437;48.156;11.530;2023-05-07T13:08:23;5.75;;;1.65;;
20557;SDS011;10437;48.156;11.530;2023-05-07T13:10:54;2.38;;;1.30;;
20557;SDS011;10437;48.156;11.530;2023-05-07T13:13:21;3.15;;;1.50;;
20557;SDS011;10437;48.156;11.530;2023-05-07T13:15:48;2.08;;;1.30;;
20557;SDS011;10437;48.156;11.530;2023-05-07T13:18:16;2.75;;;1.33;;
20557;SDS011;10437;48.156;11.530;2023-05-07T13:20:44;2.22;;;1.40;;
20557;SDS011;10437;48.156;11.530;2023-05-07T13:23:11;2.40;;;1.50;;
20557;SDS011;10437;48.156;11.530;2023-05-07T13:25:38;1.30;;;1.13;;
20557;SDS011;10437;48.156;11.530;2023-05-07T13:28:05;4.32;;;1.33;;
20557;SDS011;10437;48.156;11.530;2023-05-07T13:30:32;8.63;;;1.60;;
20557;SDS011;10437;48.156;11.530;2023-05-07T13:32:59;1.92;;;1.20;;
20557;SDS011;10437;48.156;11.530;2023-05-07T13:35:28;3.42;;;1.20;;
20557;SDS011;10437;48.156;11.530;2023-05-07T13:37:55;2.80;;;1.20;;
20557;SDS011;10437;48.156;11.530;2023-05-07T13:40:22;2.13;;;1.20;;
20557;SDS011;10437;48.156;11.530;2023-05-07T13:42:50;4.15;;;1.25;;
20557;SDS011;10437;48.156;11.530;2023-05-07T13:45:17;2.03;;;1.10;;
20557;SDS011;10437;48.156;11.530;2023-05-07T13:47:45;2.35;;;1.27;;
20557;SDS011;10437;48.156;11.530;2023-05-07T13:50:14;1.63;;;1.20;;
20557;SDS011;10437;48.156;11.530;2023-05-07T13:52:43;2.35;;;1.30;;
20557;SDS011;10437;48.156;11.530;2023-05-07T13:55:15;3.70;;;1.67;;
20557;SDS011;10437;48.156;11.530;2023-05-07T13:57:42;3.28;;;1.63;;
20557;SDS011;10437;48.156;11.530;2023-05-07T14:00:10;3.15;;;1.60;;
20557;SDS011;10437;48.156;11.530;2023-05-07T14:02:37;3.50;;;1.50;;
20557;SDS011;10437;48.156;11.530;2023-05-07T14:05:05;3.85;;;1.55;;
20557;SDS011;10437;48.156;11.530;2023-05-07T14:07:32;4.32;;;1.73;;
20557;SDS011;10437;48.156;11.530;2023-05-07T14:10:02;3.85;;;1.77;;
20557;SDS011;10437;48.156;11.530;2023-05-07T14:12:29;1.90;;;1.50;;
20557;SDS011;10437;48.156;11.530;2023-05-07T14:14:56;5.40;;;1.90;;
20557;SDS011;10437;48.156;11.530;2023-05-07T14:17:23;4.70;;;1.58;;
20557;SDS011;10437;48.156;11.530;2023-05-07T14:19:52;2.88;;;1.70;;
20557;SDS011;10437;48.156;11.530;2023-05-07T14:22:20;2.10;;;1.50;;
20557;SDS011;10437;48.156;11.530;2023-05-07T14:24:47;3.67;;;1.52;;
20557;SDS011;10437;48.156;11.530;2023-05-07T14:27:15;2.05;;;1.55;;
20557;SDS011;10437;48.156;11.530;2023-05-07T14:29:42;1.85;;;1.42;;
20557;SDS011;10437;48.156;11.530;2023-05-07T14:32:10;2.00;;;1.38;;
20557;SDS011;10437;48.156;11.530;2023-05-07T14:34:38;2.03;;;1.50;;
20557;SDS011;10437;48.156;11.530;2023-05-07T14:37:06;2.33;;;1.55;;
20557;SDS011;10437;48.156;11.530;2023-05-07T14:39:33;2.15;;;1.60;;
20557;SDS011;10437;48.156;11.530;2023-05-07T14:42:00;3.25;;;1.70;;